createdAt,value
2018-06-03T00:00:08.684Z,19.55
2018-06-03T00:01:08.682Z,19.50
2018-06-03T00:02:08.695Z,19.43
2018-06-03T00:03:08.698Z,19.47
2018-06-03T00:04:08.711Z,19.33
2018-06-03T00:05:08.718Z,19.29
2018-06-03T00:06:08.721Z,19.11
2018-06-03T00:07:08.729Z,19.19
2018-06-03T00:08:08.736Z,19.14
2018-06-03T00:09:08.752Z,18.98
2018-06-03T00:10:08.764Z,18.99
2018-06-03T00:11:08.762Z,19.18
2018-06-03T00:12:08.769Z,18.95
2018-06-03T00:13:08.776Z,18.85
2018-06-03T00:14:08.791Z,18.94
2018-06-03T00:15:08.792Z,18.99
2018-06-03T00:16:08.798Z,18.90
2018-06-03T00:17:08.807Z,18.88
2018-06-03T00:18:08.811Z,18.88
2018-06-03T00:19:08.820Z,18.90
2018-06-03T00:20:08.832Z,18.92
2018-06-03T00:21:08.833Z,18.87
2018-06-03T00:22:08.841Z,18.66
2018-06-03T00:23:08.857Z,18.69
2018-06-03T00:24:08.858Z,18.63
2018-06-03T00:25:08.862Z,18.66
2018-06-03T00:26:08.929Z,18.73
2018-06-03T00:27:08.878Z,18.69
2018-06-03T00:28:08.884Z,18.82
2018-06-03T00:29:08.893Z,18.82
2018-06-03T00:30:08.899Z,18.76
2018-06-03T00:31:08.911Z,18.67
2018-06-03T00:32:08.923Z,18.80
2018-06-03T00:33:08.926Z,18.82
2018-06-03T00:34:08.951Z,18.87
2018-06-03T00:35:08.937Z,18.80
2018-06-03T00:36:08.944Z,18.80
2018-06-03T00:37:08.955Z,18.78
2018-06-03T00:38:08.955Z,18.85
2018-06-03T00:39:08.963Z,18.67
2018-06-03T00:40:08.974Z,18.80
2018-06-03T00:41:08.982Z,18.57
2018-06-03T00:42:08.987Z,18.84
2018-06-03T00:43:08.993Z,18.92
2018-06-03T00:44:09.015Z,18.91
2018-06-03T00:45:09.008Z,18.76
2018-06-03T00:46:09.017Z,18.87
2018-06-03T00:47:09.028Z,18.87
2018-06-03T00:48:09.030Z,18.87
2018-06-03T00:49:09.037Z,18.98
2018-06-03T00:50:09.047Z,18.84
2018-06-03T00:51:09.049Z,18.90
2018-06-03T00:52:09.064Z,18.87
2018-06-03T00:53:09.071Z,18.91
2018-06-03T00:54:09.076Z,18.88
2018-06-03T00:55:09.093Z,18.80
2018-06-03T00:56:09.090Z,18.73
2018-06-03T00:57:09.103Z,18.60
2018-06-03T00:58:09.108Z,18.57
2018-06-03T00:59:09.109Z,18.63
2018-06-03T01:00:09.114Z,18.92
2018-06-03T01:01:09.128Z,18.95
2018-06-03T01:02:09.136Z,18.91
2018-06-03T01:03:09.134Z,18.76
2018-06-03T01:04:09.144Z,18.87
2018-06-03T01:05:09.150Z,18.87
2018-06-03T01:06:09.156Z,18.82
2018-06-03T01:07:09.165Z,18.76
2018-06-03T01:08:09.176Z,18.69
2018-06-03T01:09:09.179Z,18.54
2018-06-03T01:10:09.190Z,18.44
2018-06-03T01:11:09.192Z,18.57
2018-06-03T01:12:09.205Z,18.69
2018-06-03T01:13:09.215Z,18.47
2018-06-03T01:14:09.213Z,18.36
2018-06-03T01:15:09.237Z,18.42
2018-06-03T01:16:09.229Z,18.73
2018-06-03T01:17:09.239Z,18.69
2018-06-03T01:18:09.244Z,18.69
2018-06-03T01:19:09.255Z,18.76
2018-06-03T01:20:09.255Z,18.67
2018-06-03T01:21:09.262Z,18.70
2018-06-03T01:22:09.272Z,18.67
2018-06-03T01:23:09.284Z,18.41
2018-06-03T01:24:09.284Z,18.55
2018-06-03T01:25:09.296Z,18.51
2018-06-03T01:26:09.305Z,18.52
2018-06-03T01:27:09.307Z,18.42
2018-06-03T01:28:09.322Z,18.37
2018-06-03T01:29:09.321Z,18.57
2018-06-03T01:30:09.324Z,18.52
2018-06-03T01:31:09.331Z,18.55
2018-06-03T01:32:09.344Z,18.58
2018-06-03T01:33:09.349Z,18.41
2018-06-03T01:34:09.354Z,18.42
2018-06-03T01:35:09.359Z,18.58
2018-06-03T01:36:09.371Z,18.55
2018-06-03T01:37:09.378Z,18.65
2018-06-03T01:38:09.380Z,18.69
2018-06-03T01:39:09.392Z,18.70
2018-06-03T01:40:09.402Z,18.82
2018-06-03T01:41:09.406Z,18.58
2018-06-03T01:42:09.433Z,18.52
2018-06-03T01:43:09.432Z,18.62
2018-06-03T01:44:09.423Z,18.57
2018-06-03T01:45:09.434Z,18.57
2018-06-03T01:46:09.436Z,18.60
2018-06-03T01:47:09.442Z,18.57
2018-06-03T01:48:09.460Z,18.67
2018-06-03T01:49:09.458Z,18.65
2018-06-03T01:50:09.466Z,18.44
2018-06-03T01:51:09.468Z,18.58
2018-06-03T01:52:09.480Z,18.29
2018-06-03T01:53:09.487Z,18.27
2018-06-03T01:54:09.491Z,18.45
2018-06-03T01:55:09.498Z,18.57
2018-06-03T01:56:09.505Z,18.73
2018-06-03T01:57:09.539Z,18.75
2018-06-03T01:58:09.518Z,18.78
2018-06-03T01:59:09.527Z,18.76
2018-06-03T02:00:09.541Z,18.84
2018-06-03T02:01:09.540Z,18.82
2018-06-03T02:02:09.555Z,18.80
2018-06-03T02:03:09.557Z,18.72
2018-06-03T02:04:09.558Z,18.75
2018-06-03T02:05:09.567Z,18.65
2018-06-03T02:06:09.579Z,18.55
2018-06-03T02:07:09.579Z,18.57
2018-06-03T02:08:09.587Z,18.57
2018-06-03T02:09:09.595Z,18.65
2018-06-03T02:10:09.609Z,18.69
2018-06-03T02:11:09.609Z,18.73
2018-06-03T02:12:09.614Z,18.65
2018-06-03T02:13:09.623Z,18.57
2018-06-03T02:14:09.637Z,18.54
2018-06-03T02:15:09.634Z,18.69
2018-06-03T02:16:09.646Z,18.52
2018-06-03T02:17:09.649Z,18.47
2018-06-03T02:18:09.656Z,18.52
2018-06-03T02:19:09.665Z,18.27
2018-06-03T02:20:09.669Z,18.55
2018-06-03T02:21:09.677Z,18.58
2018-06-03T02:22:09.682Z,18.45
2018-06-03T02:23:09.699Z,18.39
2018-06-03T02:24:09.695Z,18.41
2018-06-03T02:25:09.703Z,18.36
2018-06-03T02:26:09.709Z,18.51
2018-06-03T02:27:09.718Z,18.54
2018-06-03T02:28:09.722Z,18.73
2018-06-03T02:29:09.729Z,18.70
2018-06-03T02:30:09.742Z,18.66
2018-06-03T02:31:09.741Z,18.58
2018-06-03T02:32:09.753Z,18.52
2018-06-03T02:33:09.757Z,18.65
2018-06-03T02:34:09.763Z,18.41
2018-06-03T02:35:09.811Z,18.37
2018-06-03T02:36:09.778Z,18.48
2018-06-03T02:37:09.783Z,18.65
2018-06-03T02:38:09.790Z,18.41
2018-06-03T02:39:09.796Z,18.25
2018-06-03T02:40:09.802Z,18.37
2018-06-03T02:41:09.816Z,18.57
2018-06-03T02:42:09.819Z,18.27
2018-06-03T02:43:09.824Z,18.48
2018-06-03T02:44:09.832Z,18.35
2018-06-03T02:45:09.837Z,18.39
2018-06-03T02:46:09.843Z,18.41
2018-06-03T02:47:09.850Z,18.26
2018-06-03T02:48:09.876Z,18.37
2018-06-03T02:49:09.863Z,18.41
2018-06-03T02:50:09.869Z,18.55
2018-06-03T02:51:09.879Z,18.55
2018-06-03T02:52:09.883Z,18.37
2018-06-03T02:53:09.894Z,18.37
2018-06-03T02:54:09.894Z,18.39
2018-06-03T02:55:09.925Z,18.30
2018-06-03T02:56:09.914Z,18.36
2018-06-03T02:57:09.921Z,18.15
2018-06-03T02:58:09.926Z,18.41
2018-06-03T02:59:09.928Z,18.25
2018-06-03T03:00:09.937Z,18.15
2018-06-03T03:01:09.947Z,18.26
2018-06-03T03:02:09.949Z,18.11
2018-06-03T03:03:09.955Z,18.14
2018-06-03T03:04:09.961Z,18.17
2018-06-03T03:05:09.974Z,18.26
2018-06-03T03:06:09.977Z,18.25
2018-06-03T03:07:09.982Z,18.17
2018-06-03T03:08:09.988Z,18.11
2018-06-03T03:09:09.995Z,18.10
2018-06-03T03:10:10.001Z,18.11
2018-06-03T03:11:10.013Z,18.37
2018-06-03T03:12:10.017Z,18.17
2018-06-03T03:13:10.025Z,18.35
2018-06-03T03:14:10.027Z,18.37
2018-06-03T03:15:10.032Z,18.39
2018-06-03T03:16:10.066Z,18.50
2018-06-03T03:17:10.053Z,18.18
2018-06-03T03:18:10.055Z,18.33
2018-06-03T03:19:10.060Z,18.41
2018-06-03T03:20:10.068Z,18.36
2018-06-03T03:21:10.077Z,18.27
2018-06-03T03:22:10.080Z,18.35
2018-06-03T03:23:10.088Z,18.37
2018-06-03T03:24:10.094Z,18.52
2018-06-03T03:25:10.101Z,18.57
2018-06-03T03:26:10.105Z,18.54
2018-06-03T03:27:10.119Z,18.37
2018-06-03T03:28:10.123Z,18.30
2018-06-03T03:29:10.127Z,18.26
2018-06-03T03:30:10.131Z,18.35
2018-06-03T03:31:10.140Z,18.55
2018-06-03T03:32:10.144Z,18.21
2018-06-03T03:33:10.154Z,18.36
2018-06-03T03:34:10.159Z,18.23
2018-06-03T03:35:10.195Z,18.35
2018-06-03T03:36:10.174Z,18.36
2018-06-03T03:37:10.203Z,18.39
2018-06-03T03:38:10.185Z,18.35
2018-06-03T03:39:10.192Z,18.37
2018-06-03T03:40:10.197Z,18.52
2018-06-03T03:41:10.208Z,18.52
2018-06-03T03:42:10.212Z,18.60
2018-06-03T03:43:10.218Z,18.60
2018-06-03T03:44:10.225Z,18.62
2018-06-03T03:45:10.232Z,18.55
2018-06-03T03:46:10.244Z,18.36
2018-06-03T03:47:10.245Z,18.29
2018-06-03T03:48:10.250Z,18.25
2018-06-03T03:49:10.259Z,18.20
2018-06-03T03:50:10.263Z,18.25
2018-06-03T03:51:10.271Z,18.20
2018-06-03T03:52:10.281Z,18.05
2018-06-03T03:53:10.283Z,18.17
2018-06-03T03:54:10.291Z,18.33
2018-06-03T03:55:10.317Z,18.41
2018-06-03T03:56:10.307Z,18.52
2018-06-03T03:57:10.309Z,18.55
2018-06-03T03:58:10.320Z,18.45
2018-06-03T03:59:10.323Z,18.18
2018-06-03T04:00:10.335Z,18.23
2018-06-03T04:01:10.337Z,18.36
2018-06-03T04:02:10.342Z,18.18
2018-06-03T04:03:10.348Z,18.11
2018-06-03T04:04:10.359Z,18.08
2018-06-03T04:05:10.362Z,18.14
2018-06-03T04:06:10.372Z,18.17
2018-06-03T04:07:10.373Z,18.30
2018-06-03T04:08:10.381Z,18.41
2018-06-03T04:09:10.396Z,18.30
2018-06-03T04:10:10.397Z,18.25
2018-06-03T04:11:10.407Z,18.17
2018-06-03T04:12:10.419Z,18.18
2018-06-03T04:13:10.455Z,18.18
2018-06-03T04:14:10.421Z,18.39
2018-06-03T04:15:10.429Z,18.26
2018-06-03T04:16:10.434Z,18.37
2018-06-03T04:17:10.456Z,18.42
2018-06-03T04:18:10.447Z,18.57
2018-06-03T04:19:10.462Z,18.55
2018-06-03T04:20:10.461Z,18.52
2018-06-03T04:21:10.468Z,18.47
2018-06-03T04:22:10.472Z,18.54
2018-06-03T04:23:10.484Z,18.65
2018-06-03T04:24:10.487Z,18.73
2018-06-03T04:25:10.500Z,18.66
2018-06-03T04:26:10.499Z,18.72
2018-06-03T04:27:10.508Z,18.65
2018-06-03T04:28:10.515Z,18.69
2018-06-03T04:29:10.524Z,18.87
2018-06-03T04:30:10.527Z,18.85
2018-06-03T04:31:10.536Z,18.95
2018-06-03T04:32:10.547Z,19.04
2018-06-03T04:33:10.548Z,18.94
2018-06-03T04:34:10.553Z,18.92
2018-06-03T04:35:10.578Z,18.94
2018-06-03T04:36:10.573Z,18.91
2018-06-03T04:37:10.575Z,18.95
2018-06-03T04:38:10.586Z,19.08
2018-06-03T04:39:10.592Z,18.88
2018-06-03T04:40:10.596Z,18.81
2018-06-03T04:41:10.599Z,18.84
2018-06-03T04:42:10.612Z,18.80
2018-06-03T04:43:10.615Z,18.88
2018-06-03T04:44:10.621Z,18.98
2018-06-03T04:45:10.631Z,19.10
2018-06-03T04:46:10.644Z,19.02
2018-06-03T04:47:10.646Z,19.16
2018-06-03T04:48:10.652Z,19.11
2018-06-03T04:49:10.657Z,19.31
2018-06-03T04:50:10.669Z,19.23
2018-06-03T04:51:10.673Z,19.18
2018-06-03T04:52:10.675Z,19.13
2018-06-03T04:53:10.691Z,19.10
2018-06-03T04:54:10.698Z,19.14
2018-06-03T04:55:10.699Z,19.14
2018-06-03T04:56:10.704Z,19.19
2018-06-03T04:57:10.712Z,19.28
2018-06-03T04:58:10.721Z,19.40
2018-06-03T04:59:10.728Z,19.32
2018-06-03T05:00:10.736Z,19.41
2018-06-03T05:01:10.747Z,19.40
2018-06-03T05:02:10.748Z,19.48
2018-06-03T05:03:10.757Z,19.37
2018-06-03T05:04:10.761Z,19.32
2018-06-03T05:05:10.768Z,19.43
2018-06-03T05:06:10.788Z,19.50
2018-06-03T05:07:10.791Z,19.56
2018-06-03T05:08:10.788Z,19.56
2018-06-03T05:09:10.801Z,19.69
2018-06-03T05:10:10.802Z,19.47
2018-06-03T05:11:10.810Z,19.55
2018-06-03T05:12:10.818Z,19.58
2018-06-03T05:13:10.828Z,19.55
2018-06-03T05:14:10.831Z,19.66
2018-06-03T05:15:10.840Z,19.63
2018-06-03T05:16:10.849Z,19.69
2018-06-03T05:17:10.854Z,19.66
2018-06-03T05:18:10.863Z,19.74
2018-06-03T05:19:10.875Z,19.68
2018-06-03T05:20:10.877Z,19.77
2018-06-03T05:21:10.884Z,19.76
2018-06-03T05:22:10.887Z,19.86
2018-06-03T05:23:10.900Z,19.87
2018-06-03T05:24:10.906Z,19.84
2018-06-03T05:25:10.918Z,19.86
2018-06-03T05:26:10.920Z,19.88
2018-06-03T05:27:10.928Z,20.01
2018-06-03T05:28:10.934Z,19.96
2018-06-03T05:29:10.942Z,19.95
2018-06-03T05:30:10.955Z,19.84
2018-06-03T05:31:10.956Z,19.92
2018-06-03T05:32:10.973Z,20.01
2018-06-03T05:33:10.974Z,20.01
2018-06-03T05:34:10.977Z,20.02
2018-06-03T05:35:10.984Z,20.03
2018-06-03T05:36:10.993Z,19.99
2018-06-03T05:37:11.013Z,19.94
2018-06-03T05:38:11.015Z,19.92
2018-06-03T05:39:11.015Z,19.98
2018-06-03T05:40:11.023Z,19.96
2018-06-03T05:41:11.033Z,20.06
2018-06-03T05:42:11.047Z,20.13
2018-06-03T05:43:11.050Z,20.02
2018-06-03T05:44:11.053Z,20.05
2018-06-03T05:45:11.060Z,20.26
2018-06-03T05:46:11.067Z,20.11
2018-06-03T05:47:11.105Z,20.03
2018-06-03T05:48:11.091Z,20.26
2018-06-03T05:49:11.090Z,20.20
2018-06-03T05:50:11.100Z,20.29
2018-06-03T05:51:11.105Z,20.33
2018-06-03T05:52:11.117Z,20.39
2018-06-03T05:53:11.119Z,20.43
2018-06-03T05:54:11.143Z,20.41
2018-06-03T05:55:11.136Z,20.36
2018-06-03T05:56:11.145Z,20.47
2018-06-03T05:57:11.149Z,20.31
2018-06-03T05:58:11.169Z,20.43
2018-06-03T05:59:11.164Z,20.38
2018-06-03T06:00:11.175Z,20.36
2018-06-03T06:01:11.182Z,20.43
2018-06-03T06:02:11.188Z,20.52
2018-06-03T06:03:11.194Z,20.39
2018-06-03T06:04:11.205Z,20.57
2018-06-03T06:05:11.216Z,20.48
2018-06-03T06:06:11.230Z,20.47
2018-06-03T06:07:11.228Z,20.51
2018-06-03T06:08:11.236Z,20.64
2018-06-03T06:09:11.248Z,20.66
2018-06-03T06:10:11.251Z,20.66
2018-06-03T06:11:11.258Z,20.61
2018-06-03T06:12:11.270Z,20.72
2018-06-03T06:13:11.278Z,20.72
2018-06-03T06:14:11.287Z,20.67
2018-06-03T06:15:11.289Z,20.72
2018-06-03T06:16:11.299Z,20.72
2018-06-03T06:17:11.315Z,20.69
2018-06-03T06:18:11.316Z,20.70
2018-06-03T06:19:11.329Z,20.74
2018-06-03T06:20:11.382Z,20.72
2018-06-03T06:21:11.337Z,20.74
2018-06-03T06:22:11.352Z,20.87
2018-06-03T06:23:11.358Z,20.89
2018-06-03T06:24:11.361Z,20.94
2018-06-03T06:25:11.371Z,21.04
2018-06-03T06:26:11.383Z,20.99
2018-06-03T06:27:11.389Z,21.09
2018-06-03T06:28:11.396Z,21.04
2018-06-03T06:29:11.405Z,21.03
2018-06-03T06:30:11.407Z,21.10
2018-06-03T06:31:11.419Z,21.25
2018-06-03T06:32:11.428Z,21.21
2018-06-03T06:33:11.433Z,21.22
2018-06-03T06:34:11.444Z,21.17
2018-06-03T06:35:11.452Z,21.32
2018-06-03T06:36:11.465Z,21.43
2018-06-03T06:37:11.468Z,21.44
2018-06-03T06:38:11.476Z,21.46
2018-06-03T06:39:11.484Z,21.53
2018-06-03T06:40:11.492Z,21.40
2018-06-03T06:41:11.501Z,21.46
2018-06-03T06:42:11.514Z,21.52
2018-06-03T06:43:11.521Z,21.65
2018-06-03T06:44:11.526Z,21.59
2018-06-03T06:45:11.535Z,21.65
2018-06-03T06:46:11.565Z,21.62
2018-06-03T06:47:11.553Z,21.74
2018-06-03T06:48:11.564Z,21.74
2018-06-03T06:49:11.571Z,21.69
2018-06-03T06:50:11.580Z,21.71
2018-06-03T06:51:11.595Z,21.75
2018-06-03T06:52:11.597Z,21.75
2018-06-03T06:53:11.637Z,21.79
2018-06-03T06:54:11.616Z,21.82
2018-06-03T06:55:11.624Z,21.84
2018-06-03T06:56:11.633Z,21.99
2018-06-03T06:57:11.647Z,21.88
2018-06-03T06:58:11.651Z,21.80
2018-06-03T06:59:11.660Z,21.98
2018-06-03T07:00:11.682Z,21.92
2018-06-03T07:01:11.679Z,21.98
2018-06-03T07:02:11.688Z,21.92
2018-06-03T07:03:11.704Z,22.00
2018-06-03T07:04:11.731Z,21.86
2018-06-03T07:05:11.716Z,21.99
2018-06-03T07:06:11.722Z,21.86
2018-06-03T07:07:11.735Z,21.84
2018-06-03T07:08:11.750Z,21.91
2018-06-03T07:09:11.756Z,21.91
2018-06-03T07:10:11.760Z,21.80
2018-06-03T07:11:11.768Z,21.82
2018-06-03T07:12:11.779Z,21.99
2018-06-03T07:13:11.846Z,21.77
2018-06-03T07:14:11.800Z,21.91
2018-06-03T07:15:11.807Z,21.91
2018-06-03T07:16:11.814Z,21.80
2018-06-03T07:17:11.828Z,21.79
2018-06-03T07:18:11.831Z,21.92
2018-06-03T07:19:11.842Z,21.98
2018-06-03T07:20:11.851Z,22.00
2018-06-03T07:21:11.862Z,21.98
2018-06-03T07:22:11.868Z,22.05
2018-06-03T07:23:11.916Z,22.09
2018-06-03T07:24:11.893Z,22.12
2018-06-03T07:25:11.897Z,22.05
2018-06-03T07:26:11.911Z,22.07
2018-06-03T07:27:11.914Z,22.10
2018-06-03T07:28:11.927Z,22.02
2018-06-03T07:29:11.936Z,21.75
2018-06-03T07:30:11.941Z,21.86
2018-06-03T07:31:11.953Z,21.90
2018-06-03T07:32:11.970Z,21.91
2018-06-03T07:33:11.974Z,22.06
2018-06-03T07:34:11.979Z,22.10
2018-06-03T07:35:11.987Z,22.06
2018-06-03T07:36:11.996Z,22.09
2018-06-03T07:37:12.005Z,22.21
2018-06-03T07:38:12.045Z,22.10
2018-06-03T07:39:12.025Z,22.10
2018-06-03T07:40:12.048Z,22.12
2018-06-03T07:41:12.048Z,22.05
2018-06-03T07:42:12.053Z,22.10
2018-06-03T07:43:12.062Z,22.07
2018-06-03T07:44:12.072Z,22.10
2018-06-03T07:45:12.085Z,22.09
2018-06-03T07:46:12.089Z,22.14
2018-06-03T07:47:12.100Z,22.09
2018-06-03T07:48:12.114Z,22.15
2018-06-03T07:49:12.117Z,22.14
2018-06-03T07:50:12.126Z,22.15
2018-06-03T07:51:12.136Z,22.24
2018-06-03T07:52:12.146Z,22.27
2018-06-03T07:53:12.159Z,22.33
2018-06-03T07:54:12.162Z,22.22
2018-06-03T07:55:12.177Z,22.22
2018-06-03T07:56:12.180Z,22.25
2018-06-03T07:57:12.195Z,22.31
2018-06-03T07:58:12.197Z,22.09
2018-06-03T07:59:12.204Z,22.18
2018-06-03T08:00:12.216Z,22.21
2018-06-03T08:01:12.219Z,22.18
2018-06-03T08:02:12.248Z,22.33
2018-06-03T08:03:12.241Z,22.30
2018-06-03T08:04:12.249Z,22.30
2018-06-03T08:05:12.259Z,22.31
2018-06-03T08:06:12.274Z,22.40
2018-06-03T08:07:12.277Z,22.37
2018-06-03T08:08:12.295Z,22.30
2018-06-03T08:09:12.306Z,22.21
2018-06-03T08:10:12.306Z,22.15
2018-06-03T08:11:12.318Z,22.18
2018-06-03T08:12:12.327Z,22.33
2018-06-03T08:13:12.335Z,22.31
2018-06-03T08:14:12.342Z,22.43
2018-06-03T08:15:12.352Z,22.54
2018-06-03T08:16:12.368Z,22.68
2018-06-03T08:17:12.410Z,22.65
2018-06-03T08:18:12.380Z,22.58
2018-06-03T08:19:12.388Z,22.55
2018-06-03T08:20:12.396Z,22.65
2018-06-03T08:21:12.405Z,22.65
2018-06-03T08:22:12.415Z,22.72
2018-06-03T08:23:12.425Z,22.77
2018-06-03T08:24:12.432Z,22.65
2018-06-03T08:25:12.451Z,22.76
2018-06-03T08:26:12.456Z,22.83
2018-06-03T08:27:12.459Z,22.80
2018-06-03T08:28:12.470Z,22.88
2018-06-03T08:29:12.486Z,22.92
2018-06-03T08:30:12.490Z,22.95
2018-06-03T08:31:12.496Z,23.01
2018-06-03T08:32:12.507Z,22.91
2018-06-03T08:33:12.518Z,23.09
2018-06-03T08:34:12.528Z,23.19
2018-06-03T08:35:12.539Z,23.17
2018-06-03T08:36:12.547Z,23.05
2018-06-03T08:37:12.560Z,23.16
2018-06-03T08:38:12.567Z,23.20
2018-06-03T08:39:12.649Z,23.27
2018-06-03T08:40:12.588Z,23.20
2018-06-03T08:41:12.602Z,23.20
2018-06-03T08:42:12.600Z,23.25
2018-06-03T08:43:12.616Z,23.28
2018-06-03T08:44:12.623Z,23.46
2018-06-03T08:45:12.633Z,23.42
2018-06-03T08:46:12.657Z,23.36
2018-06-03T08:47:12.653Z,23.35
2018-06-03T08:48:12.661Z,23.46
2018-06-03T08:49:12.709Z,23.61
2018-06-03T08:50:12.679Z,23.68
2018-06-03T08:51:12.691Z,23.55
2018-06-03T08:52:12.726Z,23.60
2018-06-03T08:53:12.714Z,23.68
2018-06-03T08:54:12.721Z,23.66
2018-06-03T08:55:12.734Z,23.65
2018-06-03T08:56:12.745Z,23.68
2018-06-03T08:57:12.751Z,23.75
2018-06-03T08:58:12.768Z,23.79
2018-06-03T08:59:12.773Z,23.79
2018-06-03T09:00:12.787Z,23.76
2018-06-03T09:01:12.792Z,23.78
2018-06-03T09:02:12.802Z,23.68
2018-06-03T09:03:12.816Z,23.84
2018-06-03T09:04:12.829Z,23.88
2018-06-03T09:05:12.837Z,23.84
2018-06-03T09:06:12.852Z,23.87
2018-06-03T09:07:12.859Z,23.88
2018-06-03T09:08:12.874Z,24.09
2018-06-03T09:09:12.882Z,24.10
2018-06-03T09:10:12.884Z,23.95
2018-06-03T09:11:12.907Z,23.87
2018-06-03T09:12:12.911Z,23.87
2018-06-03T09:13:12.918Z,23.93
2018-06-03T09:14:12.927Z,24.05
2018-06-03T09:15:12.945Z,23.95
2018-06-03T09:16:12.991Z,24.08
2018-06-03T09:17:12.959Z,24.08
2018-06-03T09:18:12.969Z,24.10
2018-06-03T09:19:12.981Z,24.20
2018-06-03T09:20:12.992Z,24.24
2018-06-03T09:21:13.006Z,24.18
2018-06-03T09:22:13.013Z,24.22
2018-06-03T09:23:13.024Z,24.31
2018-06-03T09:24:13.039Z,24.27
2018-06-03T09:25:13.088Z,24.30
2018-06-03T09:26:13.055Z,24.39
2018-06-03T09:27:13.089Z,24.34
2018-06-03T09:28:13.079Z,24.40
2018-06-03T09:29:13.088Z,24.47
2018-06-03T09:30:13.100Z,24.65
2018-06-03T09:31:13.110Z,24.65
2018-06-03T09:32:13.120Z,24.65
2018-06-03T09:33:13.138Z,24.76
2018-06-03T09:34:13.143Z,24.73
2018-06-03T09:35:13.163Z,24.77
2018-06-03T09:36:13.169Z,24.84
2018-06-03T09:37:13.180Z,24.77
2018-06-03T09:38:13.191Z,24.76
2018-06-03T09:39:13.201Z,24.64
2018-06-03T09:40:13.208Z,24.85
2018-06-03T09:41:13.239Z,24.78
2018-06-03T09:42:13.231Z,24.84
2018-06-03T09:43:13.247Z,24.83
2018-06-03T09:44:13.259Z,24.91
2018-06-03T09:45:13.270Z,24.85
2018-06-03T09:46:13.273Z,24.96
2018-06-03T09:47:13.294Z,25.00
2018-06-03T09:48:13.308Z,25.06
2018-06-03T09:49:13.307Z,25.06
2018-06-03T09:50:13.325Z,25.15
2018-06-03T09:51:13.335Z,25.06
2018-06-03T09:52:13.345Z,24.91
2018-06-03T09:53:13.497Z,25.05
2018-06-03T09:54:13.375Z,25.15
2018-06-03T09:55:13.377Z,25.30
2018-06-03T09:56:13.392Z,25.40
2018-06-03T09:57:13.403Z,25.30
2018-06-03T09:58:13.413Z,25.38
2018-06-03T09:59:13.430Z,25.33
2018-06-03T10:00:13.435Z,25.43
2018-06-03T10:01:13.452Z,25.47
2018-06-03T10:02:13.461Z,25.57
2018-06-03T10:03:13.472Z,25.75
2018-06-03T10:04:13.481Z,25.55
2018-06-03T10:05:13.489Z,25.47
2018-06-03T10:06:13.505Z,25.45
2018-06-03T10:07:13.514Z,25.52
2018-06-03T10:08:13.528Z,25.51
2018-06-03T10:09:13.547Z,25.45
2018-06-03T10:10:13.576Z,25.46
2018-06-03T10:11:13.567Z,25.35
2018-06-03T10:12:13.580Z,25.45
2018-06-03T10:13:13.589Z,25.40
2018-06-03T10:14:13.604Z,25.57
2018-06-03T10:15:13.617Z,25.62
2018-06-03T10:16:13.665Z,25.42
2018-06-03T10:17:13.634Z,25.55
2018-06-03T10:18:13.648Z,25.60
2018-06-03T10:19:13.658Z,25.77
2018-06-03T10:20:13.677Z,25.76
2018-06-03T10:21:13.680Z,25.75
2018-06-03T10:22:13.699Z,25.90
2018-06-03T10:23:13.716Z,25.76
2018-06-03T10:24:13.719Z,25.88
2018-06-03T10:25:13.727Z,26.02
2018-06-03T10:26:13.739Z,26.02
2018-06-03T10:27:13.751Z,26.18
2018-06-03T10:28:13.764Z,26.15
2018-06-03T10:29:13.777Z,26.20
2018-06-03T10:30:13.788Z,26.10
2018-06-03T10:31:13.801Z,26.13
2018-06-03T10:32:13.813Z,26.02
2018-06-03T10:33:13.828Z,25.94
2018-06-03T10:34:13.836Z,26.20
2018-06-03T10:35:13.848Z,26.17
2018-06-03T10:36:13.865Z,26.09
2018-06-03T10:37:13.879Z,26.20
2018-06-03T10:38:13.893Z,26.37
2018-06-03T10:39:13.897Z,26.25
2018-06-03T10:40:13.912Z,26.25
2018-06-03T10:41:13.922Z,26.40
2018-06-03T10:42:13.933Z,26.32
2018-06-03T10:43:13.947Z,26.39
2018-06-03T10:44:13.965Z,26.48
2018-06-03T10:45:13.977Z,26.58
2018-06-03T10:46:13.981Z,26.51
2018-06-03T10:47:13.994Z,26.50
2018-06-03T10:48:14.016Z,26.48
2018-06-03T10:49:14.026Z,26.45
2018-06-03T10:50:14.031Z,26.48
2018-06-03T10:51:14.048Z,26.32
2018-06-03T10:52:14.058Z,26.36
2018-06-03T10:53:14.073Z,26.43
2018-06-03T10:54:14.120Z,26.40
2018-06-03T10:55:14.096Z,26.50
2018-06-03T10:56:14.116Z,26.63
2018-06-03T10:57:14.156Z,26.51
2018-06-03T10:58:14.134Z,26.60
2018-06-03T10:59:14.152Z,26.63
2018-06-03T11:00:14.160Z,26.80
2018-06-03T11:01:14.172Z,26.77
2018-06-03T11:02:14.183Z,26.65
2018-06-03T11:03:14.199Z,26.88
2018-06-03T11:04:14.213Z,27.02
2018-06-03T11:05:14.223Z,26.88
2018-06-03T11:06:14.237Z,26.77
2018-06-03T11:07:14.253Z,26.89
2018-06-03T11:08:14.262Z,26.95
2018-06-03T11:09:14.281Z,26.77
2018-06-03T11:10:14.288Z,26.85
2018-06-03T11:11:14.299Z,26.95
2018-06-03T11:12:14.313Z,27.03
2018-06-03T11:13:14.328Z,27.04
2018-06-03T11:14:14.340Z,27.03
2018-06-03T11:15:14.358Z,27.06
2018-06-03T11:16:14.365Z,27.18
2018-06-03T11:17:14.378Z,27.17
2018-06-03T11:18:14.389Z,27.12
2018-06-03T11:19:14.406Z,27.10
2018-06-03T11:20:14.420Z,27.12
2018-06-03T11:21:14.433Z,27.10
2018-06-03T11:22:14.450Z,27.18
2018-06-03T11:23:14.454Z,27.13
2018-06-03T11:24:14.469Z,27.09
2018-06-03T11:25:14.483Z,26.95
2018-06-03T11:26:14.494Z,27.03
2018-06-03T11:27:14.509Z,27.09
2018-06-03T11:28:14.522Z,27.13
2018-06-03T11:29:14.536Z,27.25
2018-06-03T11:30:14.549Z,27.32
2018-06-03T11:31:14.567Z,27.07
2018-06-03T11:32:14.574Z,27.27
2018-06-03T11:33:14.589Z,27.25
2018-06-03T11:34:14.603Z,27.34
2018-06-03T11:35:14.616Z,27.09
2018-06-03T11:36:14.627Z,27.21
2018-06-03T11:37:14.641Z,27.27
2018-06-03T11:38:14.655Z,27.34
2018-06-03T11:39:14.673Z,27.39
2018-06-03T11:40:14.685Z,27.40
2018-06-03T11:41:14.692Z,27.47
2018-06-03T11:42:14.709Z,27.39
2018-06-03T11:43:14.720Z,27.40
2018-06-03T11:44:14.745Z,27.21
2018-06-03T11:45:14.754Z,26.75
2018-06-03T11:46:14.764Z,26.92
2018-06-03T11:47:14.776Z,26.99
2018-06-03T11:48:14.788Z,27.09
2018-06-03T11:49:14.814Z,27.17
2018-06-03T11:50:14.816Z,27.09
2018-06-03T11:51:14.830Z,27.09
2018-06-03T11:52:14.840Z,27.17
2018-06-03T11:53:14.856Z,26.77
2018-06-03T11:54:14.872Z,26.76
2018-06-03T11:55:14.883Z,26.92
2018-06-03T11:56:14.896Z,26.97
2018-06-03T11:57:14.908Z,26.85
2018-06-03T11:58:14.930Z,26.82
2018-06-03T11:59:14.933Z,26.84
2018-06-03T12:00:14.947Z,26.91
2018-06-03T12:01:14.963Z,26.94
2018-06-03T12:02:14.976Z,27.06
2018-06-03T12:03:14.989Z,27.03
2018-06-03T12:04:15.002Z,27.02
2018-06-03T12:05:15.017Z,27.21
2018-06-03T12:06:15.026Z,27.28
2018-06-03T12:07:15.039Z,27.29
2018-06-03T12:08:15.106Z,27.34
2018-06-03T12:09:15.083Z,27.37
2018-06-03T12:10:15.082Z,27.44
2018-06-03T12:11:15.093Z,27.46
2018-06-03T12:12:15.107Z,27.49
2018-06-03T12:13:15.121Z,27.66
2018-06-03T12:14:15.144Z,27.66
2018-06-03T12:15:15.150Z,27.66
2018-06-03T12:16:15.159Z,27.81
2018-06-03T12:17:15.172Z,27.81
2018-06-03T12:18:15.186Z,27.77
2018-06-03T12:19:15.202Z,27.81
2018-06-03T12:20:15.215Z,27.85
2018-06-03T12:21:15.226Z,27.63
2018-06-03T12:22:15.242Z,27.63
2018-06-03T12:23:15.256Z,27.57
2018-06-03T12:24:15.267Z,27.44
2018-06-03T12:25:15.282Z,27.44
2018-06-03T12:26:15.293Z,27.65
2018-06-03T12:27:15.310Z,27.55
2018-06-03T12:28:15.323Z,27.50
2018-06-03T12:29:15.334Z,27.50
2018-06-03T12:30:15.351Z,27.50
2018-06-03T12:31:15.361Z,27.25
2018-06-03T12:32:15.373Z,27.27
2018-06-03T12:33:15.388Z,27.27
2018-06-03T12:34:15.402Z,27.39
2018-06-03T12:35:15.416Z,27.46
2018-06-03T12:36:15.436Z,27.44
2018-06-03T12:37:15.442Z,27.55
2018-06-03T12:38:15.454Z,27.49
2018-06-03T12:39:15.493Z,27.51
2018-06-03T12:40:15.492Z,27.54
2018-06-03T12:41:15.516Z,27.72
2018-06-03T12:42:15.508Z,27.65
2018-06-03T12:43:15.527Z,27.70
2018-06-03T12:44:15.542Z,27.79
2018-06-03T12:45:15.553Z,27.77
2018-06-03T12:46:15.562Z,27.66
2018-06-03T12:47:15.574Z,27.93
2018-06-03T12:48:15.592Z,27.87
2018-06-03T12:49:15.609Z,27.81
2018-06-03T12:50:15.620Z,28.02
2018-06-03T12:51:15.631Z,27.99
2018-06-03T12:52:15.646Z,27.92